sensor_id;sensor_type;location;lat;lon;timestamp;P1;durP1;ratioP1;P2;durP2;ratioP2
48733;SDS011;34530;52.084;5.146;2023-03-01T00:00:12;21.60;;;9.93;;
48733;SDS011;34530;52.084;5.146;2023-03-01T00:02:38;18.95;;;9.27;;
48733;SDS011;34530;52.084;5.146;2023-03-01T00:05:04;17.55;;;9.23;;
48733;SDS011;34530;52.084;5.146;2023-03-01T00:07:30;20.08;;;9.93;;
48733;SDS011;34530;52.084;5.146;2023-03-01T00:09:55;18.75;;;9.45;;
48733;SDS011;34530;52.084;5.146;2023-03-01T00:12:21;15.75;;;9.25;;
48733;SDS011;34530;52.084;5.146;2023-03-01T00:14:47;20.05;;;9.00;;
48733;SDS011;34530;52.084;5.146;2023-03-01T00:17:13;17.08;;;9.68;;
48733;SDS011;34530;52.084;5.146;2023-03-01T00:19:38;15.80;;;8.52;;
48733;SDS011;34530;52.084;5.146;2023-03-01T00:22:04;18.60;;;9.77;;
48733;SDS011;34530;52.084;5.146;2023-03-01T00:24:29;18.50;;;9.07;;
48733;SDS011;34530;52.084;5.146;2023-03-01T00:26:55;18.02;;;8.93;;
48733;SDS011;34530;52.084;5.146;2023-03-01T00:29:22;16.23;;;8.75;;
48733;SDS011;34530;52.084;5.146;2023-03-01T00:31:48;19.85;;;8.43;;
48733;SDS011;34530;52.084;5.146;2023-03-01T00:34:14;13.70;;;8.40;;
48733;SDS011;34530;52.084;5.146;2023-03-01T00:36:40;13.48;;;7.82;;
48733;SDS011;34530;52.084;5.146;2023-03-01T00:39:07;16.98;;;9.15;;
48733;SDS011;34530;52.084;5.146;2023-03-01T00:41:36;16.33;;;8.85;;
48733;SDS011;34530;52.084;5.146;2023-03-01T00:44:01;14.80;;;8.35;;
48733;SDS011;34530;52.084;5.146;2023-03-01T00:46:27;17.92;;;8.60;;
48733;SDS011;34530;52.084;5.146;2023-03-01T00:48:55;18.85;;;8.63;;
48733;SDS011;34530;52.084;5.146;2023-03-01T00:51:25;16.05;;;8.23;;
48733;SDS011;34530;52.084;5.146;2023-03-01T00:53:55;16.70;;;8.35;;
48733;SDS011;34530;52.084;5.146;2023-03-01T00:56:24;15.20;;;8.40;;
48733;SDS011;34530;52.084;5.146;2023-03-01T00:58:50;16.85;;;8.70;;
48733;SDS011;34530;52.084;5.146;2023-03-01T01:01:17;16.27;;;7.68;;
48733;SDS011;34530;52.084;5.146;2023-03-01T01:03:49;16.85;;;8.18;;
48733;SDS011;34530;52.084;5.146;2023-03-01T01:06:19;14.63;;;7.65;;
48733;SDS011;34530;52.084;5.146;2023-03-01T01:08:56;14.15;;;7.63;;
48733;SDS011;34530;52.084;5.146;2023-03-01T01:11:23;16.42;;;7.80;;
48733;SDS011;34530;52.084;5.146;2023-03-01T01:13:50;13.32;;;7.43;;
48733;SDS011;34530;52.084;5.146;2023-03-01T01:16:16;15.65;;;7.63;;
48733;SDS011;34530;52.084;5.146;2023-03-01T01:18:43;13.77;;;7.90;;
48733;SDS011;34530;52.084;5.146;2023-03-01T01:21:10;14.25;;;8.07;;
48733;SDS011;34530;52.084;5.146;2023-03-01T01:23:38;11.52;;;7.30;;
48733;SDS011;34530;52.084;5.146;2023-03-01T01:26:05;14.90;;;7.35;;
48733;SDS011;34530;52.084;5.146;2023-03-01T01:28:36;13.48;;;7.20;;
48733;SDS011;34530;52.084;5.146;2023-03-01T01:31:02;10.85;;;6.70;;
48733;SDS011;34530;52.084;5.146;2023-03-01T01:33:28;13.88;;;6.78;;
48733;SDS011;34530;52.084;5.146;2023-03-01T01:35:53;12.95;;;6.80;;
48733;SDS011;34530;52.084;5.146;2023-03-01T01:38:19;11.43;;;6.40;;
48733;SDS011;34530;52.084;5.146;2023-03-01T01:40:46;13.93;;;7.38;;
48733;SDS011;34530;52.084;5.146;2023-03-01T01:43:18;11.73;;;6.50;;
48733;SDS011;34530;52.084;5.146;2023-03-01T01:45:48;15.35;;;7.43;;
48733;SDS011;34530;52.084;5.146;2023-03-01T01:48:19;12.32;;;6.65;;
48733;SDS011;34530;52.084;5.146;2023-03-01T01:50:49;10.75;;;6.25;;
48733;SDS011;34530;52.084;5.146;2023-03-01T01:53:25;13.88;;;6.70;;
48733;SDS011;34530;52.084;5.146;2023-03-01T01:55:52;10.60;;;6.97;;
48733;SDS011;34530;52.084;5.146;2023-03-01T01:58:22;9.55;;;5.88;;
48733;SDS011;34530;52.084;5.146;2023-03-01T02:00:51;10.55;;;6.28;;
48733;SDS011;34530;52.084;5.146;2023-03-01T02:03:18;10.20;;;6.28;;
48733;SDS011;34530;52.084;5.146;2023-03-01T02:06:01;12.15;;;6.70;;
48733;SDS011;34530;52.084;5.146;2023-03-01T02:08:37;12.77;;;7.10;;
48733;SDS011;34530;52.084;5.146;2023-03-01T02:11:06;10.80;;;5.97;;
48733;SDS011;34530;52.084;5.146;2023-03-01T02:13:34;11.02;;;6.20;;
48733;SDS011;34530;52.084;5.146;2023-03-01T02:16:02;11.80;;;5.75;;
48733;SDS011;34530;52.084;5.146;2023-03-01T02:18:29;11.13;;;6.60;;
48733;SDS011;34530;52.084;5.146;2023-03-01T02:23:54;10.35;;;5.80;;
48733;SDS011;34530;52.084;5.146;2023-03-01T02:29:17;11.15;;;6.10;;
48733;SDS011;34530;52.084;5.146;2023-03-01T02:31:43;12.70;;;6.25;;
48733;SDS011;34530;52.084;5.146;2023-03-01T02:34:16;9.80;;;5.47;;
48733;SDS011;34530;52.084;5.146;2023-03-01T02:36:48;10.35;;;5.95;;
48733;SDS011;34530;52.084;5.146;2023-03-01T02:39:20;9.18;;;5.10;;
48733;SDS011;34530;52.084;5.146;2023-03-01T02:41:50;9.13;;;5.68;;
48733;SDS011;34530;52.084;5.146;2023-03-01T02:44:17;10.65;;;6.05;;
48733;SDS011;34530;52.084;5.146;2023-03-01T02:46:49;10.68;;;6.15;;
48733;SDS011;34530;52.084;5.146;2023-03-01T02:49:27;10.88;;;5.78;;
48733;SDS011;34530;52.084;5.146;2023-03-01T02:57:09;9.80;;;5.25;;
48733;SDS011;34530;52.084;5.146;2023-03-01T02:59:35;9.43;;;6.13;;
48733;SDS011;34530;52.084;5.146;2023-03-01T03:02:08;7.03;;;5.10;;
48733;SDS011;34530;52.084;5.146;2023-03-01T03:05:01;8.68;;;5.32;;
48733;SDS011;34530;52.084;5.146;2023-03-01T03:07:33;9.50;;;5.18;;
48733;SDS011;34530;52.084;5.146;2023-03-01T03:10:00;7.43;;;5.20;;
48733;SDS011;34530;52.084;5.146;2023-03-01T03:12:26;9.95;;;6.10;;
48733;SDS011;34530;52.084;5.146;2023-03-01T03:14:52;10.77;;;5.55;;
48733;SDS011;34530;52.084;5.146;2023-03-01T03:17:17;9.07;;;5.68;;
48733;SDS011;34530;52.084;5.146;2023-03-01T03:19:43;8.65;;;5.55;;
48733;SDS011;34530;52.084;5.146;2023-03-01T03:22:10;7.70;;;5.10;;
48733;SDS011;34530;52.084;5.146;2023-03-01T03:24:36;10.82;;;5.55;;
48733;SDS011;34530;52.084;5.146;2023-03-01T03:27:02;7.95;;;5.18;;
48733;SDS011;34530;52.084;5.146;2023-03-01T03:29:28;9.27;;;5.47;;
48733;SDS011;34530;52.084;5.146;2023-03-01T03:31:54;9.93;;;5.75;;
48733;SDS011;34530;52.084;5.146;2023-03-01T03:34:19;6.82;;;4.55;;
48733;SDS011;34530;52.084;5.146;2023-03-01T03:36:45;8.65;;;4.90;;
48733;SDS011;34530;52.084;5.146;2023-03-01T03:39:11;8.43;;;4.97;;
48733;SDS011;34530;52.084;5.146;2023-03-01T03:41:36;8.27;;;5.40;;
48733;SDS011;34530;52.084;5.146;2023-03-01T03:44:02;9.25;;;4.80;;
48733;SDS011;34530;52.084;5.146;2023-03-01T03:46:27;10.52;;;5.53;;
48733;SDS011;34530;52.084;5.146;2023-03-01T03:48:53;8.48;;;5.13;;
48733;SDS011;34530;52.084;5.146;2023-03-01T03:51:19;6.80;;;4.32;;
48733;SDS011;34530;52.084;5.146;2023-03-01T03:53:44;7.82;;;5.32;;
48733;SDS011;34530;52.084;5.146;2023-03-01T03:56:10;8.15;;;5.30;;
48733;SDS011;34530;52.084;5.146;2023-03-01T03:58:37;8.43;;;5.35;;
48733;SDS011;34530;52.084;5.146;2023-03-01T04:01:02;6.40;;;4.53;;
48733;SDS011;34530;52.084;5.146;2023-03-01T04:03:29;6.95;;;4.50;;
48733;SDS011;34530;52.084;5.146;2023-03-01T04:05:57;7.13;;;4.63;;
48733;SDS011;34530;52.084;5.146;2023-03-01T04:08:26;7.53;;;4.80;;
48733;SDS011;34530;52.084;5.146;2023-03-01T04:10:53;8.20;;;4.63;;
48733;SDS011;34530;52.084;5.146;2023-03-01T04:13:23;7.78;;;4.88;;
48733;SDS011;34530;52.084;5.146;2023-03-01T04:15:50;6.53;;;4.63;;
48733;SDS011;34530;52.084;5.146;2023-03-01T04:18:17;8.40;;;4.78;;
48733;SDS011;34530;52.084;5.146;2023-03-01T04:20:44;6.07;;;4.28;;
48733;SDS011;34530;52.084;5.146;2023-03-01T04:23:17;7.20;;;4.70;;
48733;SDS011;34530;52.084;5.146;2023-03-01T04:25:47;8.13;;;4.70;;
48733;SDS011;34530;52.084;5.146;2023-03-01T04:28:20;5.57;;;4.18;;
48733;SDS011;34530;52.084;5.146;2023-03-01T04:30:49;5.97;;;4.50;;
48733;SDS011;34530;52.084;5.146;2023-03-01T04:33:14;6.50;;;4.55;;
48733;SDS011;34530;52.084;5.146;2023-03-01T04:35:40;6.90;;;4.63;;
48733;SDS011;34530;52.084;5.146;2023-03-01T04:38:06;7.10;;;4.68;;
48733;SDS011;34530;52.084;5.146;2023-03-01T04:40:32;5.80;;;4.35;;
48733;SDS011;34530;52.084;5.146;2023-03-01T04:42:58;8.25;;;4.88;;
48733;SDS011;34530;52.084;5.146;2023-03-01T04:45:23;8.05;;;4.50;;
48733;SDS011;34530;52.084;5.146;2023-03-01T04:47:49;5.75;;;4.30;;
48733;SDS011;34530;52.084;5.146;2023-03-01T04:50:17;7.13;;;4.28;;
48733;SDS011;34530;52.084;5.146;2023-03-01T04:52:48;5.88;;;4.63;;
48733;SDS011;34530;52.084;5.146;2023-03-01T04:55:13;8.13;;;4.43;;
48733;SDS011;34530;52.084;5.146;2023-03-01T04:57:39;6.65;;;3.72;;
48733;SDS011;34530;52.084;5.146;2023-03-01T05:00:06;6.22;;;4.07;;
48733;SDS011;34530;52.084;5.146;2023-03-01T05:02:45;5.88;;;4.13;;
48733;SDS011;34530;52.084;5.146;2023-03-01T05:05:22;6.40;;;4.20;;
48733;SDS011;34530;52.084;5.146;2023-03-01T05:07:51;6.72;;;4.00;;
48733;SDS011;34530;52.084;5.146;2023-03-01T05:10:17;8.85;;;4.80;;
48733;SDS011;34530;52.084;5.146;2023-03-01T05:12:43;7.72;;;4.43;;
48733;SDS011;34530;52.084;5.146;2023-03-01T05:15:09;4.90;;;3.97;;
48733;SDS011;34530;52.084;5.146;2023-03-01T05:17:35;5.68;;;4.40;;
48733;SDS011;34530;52.084;5.146;2023-03-01T05:20:01;7.05;;;4.60;;
48733;SDS011;34530;52.084;5.146;2023-03-01T05:22:28;6.97;;;3.88;;
48733;SDS011;34530;52.084;5.146;2023-03-01T05:24:54;5.00;;;3.97;;
48733;SDS011;34530;52.084;5.146;2023-03-01T05:27:20;6.07;;;4.30;;
48733;SDS011;34530;52.084;5.146;2023-03-01T05:29:47;4.93;;;4.10;;
48733;SDS011;34530;52.084;5.146;2023-03-01T05:32:13;6.22;;;4.22;;
48733;SDS011;34530;52.084;5.146;2023-03-01T05:34:40;4.22;;;3.58;;
48733;SDS011;34530;52.084;5.146;2023-03-01T05:37:07;5.35;;;4.13;;
48733;SDS011;34530;52.084;5.146;2023-03-01T05:39:33;4.35;;;3.60;;
48733;SDS011;34530;52.084;5.146;2023-03-01T05:41:59;7.30;;;4.53;;
48733;SDS011;34530;52.084;5.146;2023-03-01T05:44:26;5.60;;;3.95;;
48733;SDS011;34530;52.084;5.146;2023-03-01T05:46:53;5.15;;;3.72;;
48733;SDS011;34530;52.084;5.146;2023-03-01T05:49:20;6.50;;;4.25;;
48733;SDS011;34530;52.084;5.146;2023-03-01T05:51:49;6.60;;;4.40;;
48733;SDS011;34530;52.084;5.146;2023-03-01T05:54:16;5.05;;;3.92;;
48733;SDS011;34530;52.084;5.146;2023-03-01T05:56:42;5.68;;;4.05;;
48733;SDS011;34530;52.084;5.146;2023-03-01T05:59:09;5.40;;;4.03;;
48733;SDS011;34530;52.084;5.146;2023-03-01T06:01:36;4.93;;;3.85;;
48733;SDS011;34530;52.084;5.146;2023-03-01T06:04:02;4.90;;;3.90;;
48733;SDS011;34530;52.084;5.146;2023-03-01T06:06:29;4.68;;;3.97;;
48733;SDS011;34530;52.084;5.146;2023-03-01T06:08:55;6.00;;;3.90;;
48733;SDS011;34530;52.084;5.146;2023-03-01T06:11:20;5.78;;;4.10;;
48733;SDS011;34530;52.084;5.146;2023-03-01T06:13:47;7.40;;;4.75;;
48733;SDS011;34530;52.084;5.146;2023-03-01T06:16:13;5.20;;;4.18;;
48733;SDS011;34530;52.084;5.146;2023-03-01T06:18:39;5.25;;;3.92;;
48733;SDS011;34530;52.084;5.146;2023-03-01T06:21:06;5.53;;;4.15;;
48733;SDS011;34530;52.084;5.146;2023-03-01T06:23:32;6.38;;;3.78;;
48733;SDS011;34530;52.084;5.146;2023-03-01T06:25:58;4.65;;;3.72;;
48733;SDS011;34530;52.084;5.146;2023-03-01T06:28:24;6.47;;;3.75;;
48733;SDS011;34530;52.084;5.146;2023-03-01T06:30:50;7.25;;;4.25;;
48733;SDS011;34530;52.084;5.146;2023-03-01T06:33:16;5.70;;;4.13;;
48733;SDS011;34530;52.084;5.146;2023-03-01T06:35:44;5.50;;;4.30;;
48733;SDS011;34530;52.084;5.146;2023-03-01T06:38:11;5.40;;;4.10;;
48733;SDS011;34530;52.084;5.146;2023-03-01T06:40:36;4.35;;;3.65;;
48733;SDS011;34530;52.084;5.146;2023-03-01T06:43:02;5.50;;;3.65;;
48733;SDS011;34530;52.084;5.146;2023-03-01T06:45:28;4.20;;;3.80;;
48733;SDS011;34530;52.084;5.146;2023-03-01T06:48:00;4.45;;;3.78;;
48733;SDS011;34530;52.084;5.146;2023-03-01T06:50:27;5.55;;;4.20;;
48733;SDS011;34530;52.084;5.146;2023-03-01T06:52:55;5.35;;;3.78;;
48733;SDS011;34530;52.084;5.146;2023-03-01T06:55:21;4.57;;;3.60;;
48733;SDS011;34530;52.084;5.146;2023-03-01T06:57:47;6.47;;;4.35;;
48733;SDS011;34530;52.084;5.146;2023-03-01T07:00:13;4.70;;;3.88;;
48733;SDS011;34530;52.084;5.146;2023-03-01T07:02:39;4.43;;;3.50;;
48733;SDS011;34530;52.084;5.146;2023-03-01T07:05:05;5.22;;;3.85;;
48733;SDS011;34530;52.084;5.146;2023-03-01T07:07:31;4.35;;;3.58;;
48733;SDS011;34530;52.084;5.146;2023-03-01T07:09:57;7.22;;;4.22;;
48733;SDS011;34530;52.084;5.146;2023-03-01T07:12:23;4.75;;;3.65;;
48733;SDS011;34530;52.084;5.146;2023-03-01T07:14:48;5.13;;;3.60;;
48733;SDS011;34530;52.084;5.146;2023-03-01T07:17:14;6.18;;;3.88;;
48733;SDS011;34530;52.084;5.146;2023-03-01T07:19:39;4.78;;;3.97;;
48733;SDS011;34530;52.084;5.146;2023-03-01T07:22:05;5.15;;;3.70;;
48733;SDS011;34530;52.084;5.146;2023-03-01T07:24:32;4.60;;;3.53;;
48733;SDS011;34530;52.084;5.146;2023-03-01T07:26:58;5.40;;;3.85;;
48733;SDS011;34530;52.084;5.146;2023-03-01T07:29:24;4.88;;;4.05;;
48733;SDS011;34530;52.084;5.146;2023-03-01T07:31:49;4.05;;;3.58;;
48733;SDS011;34530;52.084;5.146;2023-03-01T07:34:15;4.72;;;3.60;;
48733;SDS011;34530;52.084;5.146;2023-03-01T07:36:41;7.70;;;3.92;;
48733;SDS011;34530;52.084;5.146;2023-03-01T07:39:08;5.40;;;3.83;;
48733;SDS011;34530;52.084;5.146;2023-03-01T07:41:35;5.30;;;3.92;;
48733;SDS011;34530;52.084;5.146;2023-03-01T07:44:00;4.63;;;3.50;;
48733;SDS011;34530;52.084;5.146;2023-03-01T07:46:26;6.03;;;4.07;;
48733;SDS011;34530;52.084;5.146;2023-03-01T07:48:52;5.70;;;3.20;;
48733;SDS011;34530;52.084;5.146;2023-03-01T07:51:17;5.90;;;3.80;;
48733;SDS011;34530;52.084;5.146;2023-03-01T07:53:45;4.43;;;3.25;;
48733;SDS011;34530;52.084;5.146;2023-03-01T07:56:12;4.05;;;3.28;;
48733;SDS011;34530;52.084;5.146;2023-03-01T07:58:40;4.70;;;3.60;;
48733;SDS011;34530;52.084;5.146;2023-03-01T08:01:08;5.22;;;3.50;;
48733;SDS011;34530;52.084;5.146;2023-03-01T08:03:39;8.27;;;4.20;;
48733;SDS011;34530;52.084;5.146;2023-03-01T08:06:06;5.70;;;4.05;;
48733;SDS011;34530;52.084;5.146;2023-03-01T08:08:34;6.35;;;3.70;;
48733;SDS011;34530;52.084;5.146;2023-03-01T08:11:01;6.13;;;3.65;;
48733;SDS011;34530;52.084;5.146;2023-03-01T08:13:28;5.97;;;4.10;;
48733;SDS011;34530;52.084;5.146;2023-03-01T08:15:54;5.20;;;3.80;;
48733;SDS011;34530;52.084;5.146;2023-03-01T08:18:25;5.63;;;3.60;;
48733;SDS011;34530;52.084;5.146;2023-03-01T08:20:51;4.07;;;3.63;;
48733;SDS011;34530;52.084;5.146;2023-03-01T08:23:16;3.72;;;3.10;;
48733;SDS011;34530;52.084;5.146;2023-03-01T08:25:42;5.18;;;3.67;;
48733;SDS011;34530;52.084;5.146;2023-03-01T08:28:07;5.50;;;3.58;;
48733;SDS011;34530;52.084;5.146;2023-03-01T08:30:33;5.55;;;3.30;;
48733;SDS011;34530;52.084;5.146;2023-03-01T08:32:59;6.20;;;3.40;;
48733;SDS011;34530;52.084;5.146;2023-03-01T08:35:24;4.60;;;3.38;;
48733;SDS011;34530;52.084;5.146;2023-03-01T08:37:50;4.85;;;3.25;;
48733;SDS011;34530;52.084;5.146;2023-03-01T08:40:16;3.78;;;3.30;;
48733;SDS011;34530;52.084;5.146;2023-03-01T08:42:41;4.32;;;3.05;;
48733;SDS011;34530;52.084;5.146;2023-03-01T08:45:10;4.65;;;3.20;;
48733;SDS011;34530;52.084;5.146;2023-03-01T08:47:36;6.63;;;3.38;;
48733;SDS011;34530;52.084;5.146;2023-03-01T08:50:02;18.30;;;3.65;;
48733;SDS011;34530;52.084;5.146;2023-03-01T08:52:28;6.28;;;3.67;;
48733;SDS011;34530;52.084;5.146;2023-03-01T08:54:55;7.10;;;3.30;;
48733;SDS011;34530;52.084;5.146;2023-03-01T08:57:21;7.43;;;3.28;;
48733;SDS011;34530;52.084;5.146;2023-03-01T08:59:46;4.60;;;3.22;;
48733;SDS011;34530;52.084;5.146;2023-03-01T09:02:13;5.18;;;3.30;;
48733;SDS011;34530;52.084;5.146;2023-03-01T09:04:40;4.38;;;3.25;;
48733;SDS011;34530;52.084;5.146;2023-03-01T09:07:05;3.67;;;2.75;;
48733;SDS011;34530;52.084;5.146;2023-03-01T09:09:31;4.88;;;3.35;;
48733;SDS011;34530;52.084;5.146;2023-03-01T09:11:57;3.95;;;2.88;;
48733;SDS011;34530;52.084;5.146;2023-03-01T09:14:22;5.50;;;3.13;;
48733;SDS011;34530;52.084;5.146;2023-03-01T09:16:48;7.20;;;3.17;;
48733;SDS011;34530;52.084;5.146;2023-03-01T09:19:14;4.93;;;2.90;;
48733;SDS011;34530;52.084;5.146;2023-03-01T09:21:39;5.25;;;3.00;;
48733;SDS011;34530;52.084;5.146;2023-03-01T09:24:06;5.82;;;3.55;;
48733;SDS011;34530;52.084;5.146;2023-03-01T09:26:41;4.32;;;3.13;;
48733;SDS011;34530;52.084;5.146;2023-03-01T09:29:07;6.13;;;3.05;;
48733;SDS011;34530;52.084;5.146;2023-03-01T09:31:34;5.65;;;3.22;;
48733;SDS011;34530;52.084;5.146;2023-03-01T09:34:00;7.05;;;3.25;;
48733;SDS011;34530;52.084;5.146;2023-03-01T09:36:25;4.50;;;2.95;;
48733;SDS011;34530;52.084;5.146;2023-03-01T09:38:51;3.60;;;2.90;;
48733;SDS011;34530;52.084;5.146;2023-03-01T09:46:40;4.05;;;2.97;;
48733;SDS011;34530;52.084;5.146;2023-03-01T09:49:15;3.92;;;2.83;;
48733;SDS011;34530;52.084;5.146;2023-03-01T09:54:59;4.18;;;2.60;;
48733;SDS011;34530;52.084;5.146;2023-03-01T09:57:28;3.85;;;2.67;;
48733;SDS011;34530;52.084;5.146;2023-03-01T10:02:45;5.68;;;2.45;;
48733;SDS011;34530;52.084;5.146;2023-03-01T10:05:28;6.25;;;3.67;;
48733;SDS011;34530;52.084;5.146;2023-03-01T10:08:24;6.78;;;2.47;;
48733;SDS011;34530;52.084;5.146;2023-03-01T10:10:50;3.75;;;2.47;;
48733;SDS011;34530;52.084;5.146;2023-03-01T10:16:03;5.70;;;3.10;;
48733;SDS011;34530;52.084;5.146;2023-03-01T10:18:36;3.67;;;2.53;;
48733;SDS011;34530;52.084;5.146;2023-03-01T10:21:17;3.95;;;2.15;;
48733;SDS011;34530;52.084;5.146;2023-03-01T10:23:44;3.92;;;2.53;;
48733;SDS011;34530;52.084;5.146;2023-03-01T10:26:26;3.20;;;2.50;;
48733;SDS011;34530;52.084;5.146;2023-03-01T10:29:07;4.15;;;2.47;;
48733;SDS011;34530;52.084;5.146;2023-03-01T10:34:13;3.35;;;2.45;;
48733;SDS011;34530;52.084;5.146;2023-03-01T10:36:42;4.70;;;2.80;;
48733;SDS011;34530;52.084;5.146;2023-03-01T10:39:13;3.90;;;2.25;;
48733;SDS011;34530;52.084;5.146;2023-03-01T10:41:51;3.45;;;2.58;;
48733;SDS011;34530;52.084;5.146;2023-03-01T10:47:04;5.10;;;2.67;;
48733;SDS011;34530;52.084;5.146;2023-03-01T10:49:37;3.67;;;2.63;;
48733;SDS011;34530;52.084;5.146;2023-03-01T10:52:11;2.83;;;2.08;;
48733;SDS011;34530;52.084;5.146;2023-03-01T10:54:50;3.67;;;2.20;;
48733;SDS011;34530;52.084;5.146;2023-03-01T10:57:34;3.55;;;2.05;;
48733;SDS011;34530;52.084;5.146;2023-03-01T11:00:21;6.47;;;2.70;;
48733;SDS011;34530;52.084;5.146;2023-03-01T11:03:09;4.55;;;2.35;;
48733;SDS011;34530;52.084;5.146;2023-03-01T11:05:37;4.47;;;2.65;;
48733;SDS011;34530;52.084;5.146;2023-03-01T11:08:56;3.03;;;2.42;;
48733;SDS011;34530;52.084;5.146;2023-03-01T11:11:20;4.18;;;2.30;;
48733;SDS011;34530;52.084;5.146;2023-03-01T11:16:17;2.65;;;2.10;;
48733;SDS011;34530;52.084;5.146;2023-03-01T11:18:56;4.87;;;2.53;;
48733;SDS011;34530;52.084;5.146;2023-03-01T11:21:44;3.80;;;2.30;;
48733;SDS011;34530;52.084;5.146;2023-03-01T11:24:30;2.92;;;2.22;;
48733;SDS011;34530;52.084;5.146;2023-03-01T11:27:04;3.25;;;2.08;;
48733;SDS011;34530;52.084;5.146;2023-03-01T11:29:41;3.67;;;2.38;;
48733;SDS011;34530;52.084;5.146;2023-03-01T11:32:11;3.83;;;1.77;;
48733;SDS011;34530;52.084;5.146;2023-03-01T11:34:43;3.42;;;1.92;;
48733;SDS011;34530;52.084;5.146;2023-03-01T11:39:59;4.50;;;2.28;;
48733;SDS011;34530;52.084;5.146;2023-03-01T11:45:08;2.95;;;2.30;;
48733;SDS011;34530;52.084;5.146;2023-03-01T11:47:52;4.90;;;2.20;;
48733;SDS011;34530;52.084;5.146;2023-03-01T11:50:26;2.95;;;2.40;;
48733;SDS011;34530;52.084;5.146;2023-03-01T12:01:44;4.07;;;2.10;;
48733;SDS011;34530;52.084;5.146;2023-03-01T12:07:56;3.55;;;2.10;;
48733;SDS011;34530;52.084;5.146;2023-03-01T12:10:45;2.30;;;1.90;;
48733;SDS011;34530;52.084;5.146;2023-03-01T12:15:59;5.70;;;2.72;;
48733;SDS011;34530;52.084;5.146;2023-03-01T12:21:42;3.13;;;1.80;;
48733;SDS011;34530;52.084;5.146;2023-03-01T12:30:04;2.80;;;2.00;;
48733;SDS011;34530;52.084;5.146;2023-03-01T12:32:51;2.78;;;1.92;;
48733;SDS011;34530;52.084;5.146;2023-03-01T12:35:44;4.43;;;2.00;;
48733;SDS011;34530;52.084;5.146;2023-03-01T12:49:19;4.95;;;2.00;;
48733;SDS011;34530;52.084;5.146;2023-03-01T12:52:00;4.05;;;2.00;;
48733;SDS011;34530;52.084;5.146;2023-03-01T12:54:35;4.97;;;2.80;;
48733;SDS011;34530;52.084;5.146;2023-03-01T13:03:36;4.65;;;2.50;;
48733;SDS011;34530;52.084;5.146;2023-03-01T13:06:02;4.32;;;2.42;;
48733;SDS011;34530;52.084;5.146;2023-03-01T13:08:38;2.67;;;1.95;;
48733;SDS011;34530;52.084;5.146;2023-03-01T13:11:23;4.32;;;2.20;;
48733;SDS011;34530;52.084;5.146;2023-03-01T13:13:48;3.22;;;2.00;;
48733;SDS011;34530;52.084;5.146;2023-03-01T13:17:01;5.90;;;2.45;;
48733;SDS011;34530;52.084;5.146;2023-03-01T13:21:37;3.67;;;1.70;;
48733;SDS011;34530;52.084;5.146;2023-03-01T13:24:03;4.88;;;2.13;;
48733;SDS011;34530;52.084;5.146;2023-03-01T13:26:29;3.58;;;1.90;;
48733;SDS011;34530;52.084;5.146;2023-03-01T13:28:55;3.42;;;1.83;;
48733;SDS011;34530;52.084;5.146;2023-03-01T13:33:54;4.60;;;2.40;;
48733;SDS011;34530;52.084;5.146;2023-03-01T13:47:04;3.53;;;2.15;;
48733;SDS011;34530;52.084;5.146;2023-03-01T13:54:57;3.25;;;1.90;;
48733;SDS011;34530;52.084;5.146;2023-03-01T13:57:30;2.75;;;2.13;;
48733;SDS011;34530;52.084;5.146;2023-03-01T13:59:59;2.03;;;1.60;;
48733;SDS011;34530;52.084;5.146;2023-03-01T14:02:25;3.88;;;1.80;;
48733;SDS011;34530;52.084;5.146;2023-03-01T14:05:00;2.80;;;1.80;;
48733;SDS011;34530;52.084;5.146;2023-03-01T14:07:26;3.50;;;1.85;;
48733;SDS011;34530;52.084;5.146;2023-03-01T14:10:00;2.15;;;1.67;;
48733;SDS011;34530;52.084;5.146;2023-03-01T14:20:23;3.67;;;1.75;;
48733;SDS011;34530;52.084;5.146;2023-03-01T14:22:58;2.38;;;1.73;;
48733;SDS011;34530;52.084;5.146;2023-03-01T14:25:28;8.35;;;2.20;;
48733;SDS011;34530;52.084;5.146;2023-03-01T14:28:03;3.72;;;2.17;;
48733;SDS011;34530;52.084;5.146;2023-03-01T14:30:41;2.42;;;1.88;;
48733;SDS011;34530;52.084;5.146;2023-03-01T14:33:18;2.67;;;2.05;;
48733;SDS011;34530;52.084;5.146;2023-03-01T14:36:11;3.70;;;2.28;;
48733;SDS011;34530;52.084;5.146;2023-03-01T14:38:42;3.35;;;1.95;;
48733;SDS011;34530;52.084;5.146;2023-03-01T14:44:03;2.58;;;1.70;;
48733;SDS011;34530;52.084;5.146;2023-03-01T14:46:33;3.85;;;2.03;;
48733;SDS011;34530;52.084;5.146;2023-03-01T14:49:15;4.70;;;2.08;;
48733;SDS011;34530;52.084;5.146;2023-03-01T14:51:51;3.83;;;2.13;;
48733;SDS011;34530;52.084;5.146;2023-03-01T14:54:35;5.22;;;2.20;;
48733;SDS011;34530;52.084;5.146;2023-03-01T14:57:05;5.28;;;2.47;;
48733;SDS011;34530;52.084;5.146;2023-03-01T14:59:38;4.55;;;2.20;;
48733;SDS011;34530;52.084;5.146;2023-03-01T15:02:13;5.28;;;2.55;;
48733;SDS011;34530;52.084;5.146;2023-03-01T15:04:43;4.20;;;2.30;;
48733;SDS011;34530;52.084;5.146;2023-03-01T15:07:11;3.90;;;1.90;;
48733;SDS011;34530;52.084;5.146;2023-03-01T15:09:39;5.82;;;2.00;;
48733;SDS011;34530;52.084;5.146;2023-03-01T15:15:19;3.03;;;2.03;;
48733;SDS011;34530;52.084;5.146;2023-03-01T15:18:05;2.78;;;2.10;;
48733;SDS011;34530;52.084;5.146;2023-03-01T15:20:39;2.88;;;1.98;;
48733;SDS011;34530;52.084;5.146;2023-03-01T15:23:05;3.58;;;2.20;;
48733;SDS011;34530;52.084;5.146;2023-03-01T15:25:31;1.98;;;1.77;;
48733;SDS011;34530;52.084;5.146;2023-03-01T15:27:58;3.38;;;1.98;;
48733;SDS011;34530;52.084;5.146;2023-03-01T15:30:32;4.00;;;1.85;;
48733;SDS011;34530;52.084;5.146;2023-03-01T15:35:52;4.22;;;1.90;;
48733;SDS011;34530;52.084;5.146;2023-03-01T15:38:25;2.50;;;2.00;;
48733;SDS011;34530;52.084;5.146;2023-03-01T15:40:52;4.05;;;2.20;;
48733;SDS011;34530;52.084;5.146;2023-03-01T15:49:03;3.47;;;2.00;;
48733;SDS011;34530;52.084;5.146;2023-03-01T15:51:34;2.15;;;1.95;;
48733;SDS011;34530;52.084;5.146;2023-03-01T15:54:05;2.35;;;1.80;;
48733;SDS011;34530;52.084;5.146;2023-03-01T15:56:36;1.85;;;1.63;;
48733;SDS011;34530;52.084;5.146;2023-03-01T15:59:02;3.47;;;1.85;;
48733;SDS011;34530;52.084;5.146;2023-03-01T16:01:28;2.60;;;1.83;;
48733;SDS011;34530;52.084;5.146;2023-03-01T16:03:54;2.28;;;2.00;;
48733;SDS011;34530;52.084;5.146;2023-03-01T16:06:21;2.90;;;1.70;;
48733;SDS011;34530;52.084;5.146;2023-03-01T16:08:47;4.82;;;1.95;;
48733;SDS011;34530;52.084;5.146;2023-03-01T16:11:16;2.90;;;1.77;;
48733;SDS011;34530;52.084;5.146;2023-03-01T16:13:43;3.92;;;1.80;;
48733;SDS011;34530;52.084;5.146;2023-03-01T16:16:12;2.25;;;1.90;;
48733;SDS011;34530;52.084;5.146;2023-03-01T16:18:44;1.98;;;1.52;;
48733;SDS011;34530;52.084;5.146;2023-03-01T16:21:12;2.92;;;1.65;;
48733;SDS011;34530;52.084;5.146;2023-03-01T16:23:41;2.33;;;1.70;;
48733;SDS011;34530;52.084;5.146;2023-03-01T16:26:07;2.08;;;1.45;;
48733;SDS011;34530;52.084;5.146;2023-03-01T16:28:33;2.03;;;1.73;;
48733;SDS011;34530;52.084;5.146;2023-03-01T16:30:59;1.70;;;1.60;;
48733;SDS011;34530;52.084;5.146;2023-03-01T16:33:26;2.47;;;1.88;;
48733;SDS011;34530;52.084;5.146;2023-03-01T16:35:51;1.90;;;1.60;;
48733;SDS011;34530;52.084;5.146;2023-03-01T16:38:17;1.88;;;1.60;;
48733;SDS011;34530;52.084;5.146;2023-03-01T16:40:46;1.98;;;1.60;;
48733;SDS011;34530;52.084;5.146;2023-03-01T16:43:14;1.90;;;1.60;;
48733;SDS011;34530;52.084;5.146;2023-03-01T16:45:39;2.40;;;1.45;;
48733;SDS011;34530;52.084;5.146;2023-03-01T16:48:05;2.65;;;1.85;;
48733;SDS011;34530;52.084;5.146;2023-03-01T16:50:32;1.98;;;1.48;;
48733;SDS011;34530;52.084;5.146;2023-03-01T16:52:58;2.13;;;1.70;;
48733;SDS011;34530;52.084;5.146;2023-03-01T16:55:23;3.28;;;1.80;;
48733;SDS011;34530;52.084;5.146;2023-03-01T16:57:49;1.75;;;1.60;;
48733;SDS011;34530;52.084;5.146;2023-03-01T17:00:16;1.98;;;1.65;;